createdAt,value
2022-12-19T00:01:33.373Z,97018.34
2022-12-19T00:04:22.235Z,97015.31
2022-12-19T00:06:55.566Z,97028.19
2022-12-19T00:09:42.345Z,97027.16
2022-12-19T00:12:19.181Z,97026.69
2022-12-19T00:15:06.377Z,97025.75
2022-12-19T00:17:46.233Z,97017.72
2022-12-19T00:20:40.246Z,97024.53
2022-12-19T00:23:28.303Z,97013.25
2022-12-19T00:26:01.345Z,97010.88
2022-12-19T00:28:50.276Z,97020.44
2022-12-19T00:31:32.337Z,97025.19
2022-12-19T00:34:28.346Z,97020.09
2022-12-19T00:37:15.363Z,97025.19
2022-12-19T00:39:48.333Z,97013.50
2022-12-19T00:42:42.237Z,97017.88
2022-12-19T00:45:39.620Z,97012.66
2022-12-19T00:48:27.293Z,97024.88
2022-12-19T00:51:10.310Z,97027.00
2022-12-19T00:53:57.252Z,97018.09
2022-12-19T00:56:35.231Z,97020.81
2022-12-19T00:59:26.503Z,97020.09
2022-12-19T01:02:00.512Z,97020.56
2022-12-19T01:04:47.251Z,97017.22
2022-12-19T01:07:27.257Z,97020.97
2022-12-19T01:10:21.277Z,97017.47
2022-12-19T01:13:09.245Z,97026.78
2022-12-19T01:15:46.332Z,97029.41
2022-12-19T01:18:33.243Z,97023.97
2022-12-19T01:21:09.340Z,97024.53
2022-12-19T01:23:56.278Z,97025.25
2022-12-19T01:26:29.302Z,97024.38
2022-12-19T01:29:16.284Z,97026.38
2022-12-19T01:31:49.422Z,97017.09
2022-12-19T01:34:36.273Z,97012.84
2022-12-19T01:37:09.303Z,97015.00
2022-12-19T01:39:56.265Z,97011.91
2022-12-19T01:42:30.321Z,97012.44
2022-12-19T01:45:17.266Z,97015.09
2022-12-19T01:47:58.376Z,97009.81
2022-12-19T01:51:03.554Z,97009.16
2022-12-19T01:53:56.250Z,97002.03
2022-12-19T01:56:51.228Z,97005.69
2022-12-19T01:59:40.238Z,97004.81
2022-12-19T02:02:48.322Z,96997.50
2022-12-19T02:05:21.290Z,97004.88
2022-12-19T02:08:08.318Z,97004.19
2022-12-19T02:10:41.416Z,97006.63
2022-12-19T02:13:32.318Z,97001.22
2022-12-19T02:16:14.356Z,97001.44
2022-12-19T02:19:21.233Z,97001.28
2022-12-19T02:22:17.428Z,96999.22
2022-12-19T02:25:23.302Z,96982.69
2022-12-19T02:28:18.272Z,96979.88
2022-12-19T02:31:39.257Z,96975.72
2022-12-19T02:34:39.948Z,96977.03
2022-12-19T02:37:30.199Z,96974.78
2022-12-19T02:40:31.327Z,96960.56
2022-12-19T02:43:14.221Z,96958.97
2022-12-19T02:46:03.415Z,96950.75
2022-12-19T02:48:44.259Z,96948.13
2022-12-19T02:51:38.255Z,96944.78
2022-12-19T02:54:25.298Z,96942.31
2022-12-19T02:56:58.328Z,96943.91
2022-12-19T03:00:08.255Z,96946.06
2022-12-19T03:02:51.181Z,96946.75
2022-12-19T03:06:14.310Z,96943.34
2022-12-19T03:08:59.392Z,96945.81
2022-12-19T03:11:48.256Z,96941.63
2022-12-19T03:14:26.373Z,96936.38
2022-12-19T03:17:17.375Z,96944.94
2022-12-19T03:19:50.448Z,96950.41
2022-12-19T03:22:38.315Z,96944.63
2022-12-19T03:25:12.370Z,96947.09
2022-12-19T03:28:01.391Z,96944.28
2022-12-19T03:30:38.833Z,96948.53
2022-12-19T03:33:30.156Z,96951.28
2022-12-19T03:36:08.377Z,96939.88
2022-12-19T03:38:55.320Z,96946.06
2022-12-19T03:41:56.313Z,96941.63
2022-12-19T03:44:54.317Z,96941.75
2022-12-19T03:47:49.293Z,96944.41
2022-12-19T03:50:30.325Z,96939.66
2022-12-19T03:53:32.369Z,96926.31
2022-12-19T03:56:32.390Z,96927.00
2022-12-19T03:59:38.316Z,96927.50
2022-12-19T04:02:12.457Z,96925.38
2022-12-19T04:05:05.386Z,96923.06
2022-12-19T04:07:39.386Z,96910.63
2022-12-19T04:10:30.283Z,96909.75
2022-12-19T04:13:19.317Z,96909.31
2022-12-19T04:16:18.359Z,96905.44
2022-12-19T04:19:00.433Z,96906.16
2022-12-19T04:21:59.348Z,96907.19
2022-12-19T04:24:45.361Z,96904.34
2022-12-19T04:27:47.338Z,96895.47
2022-12-19T04:30:42.384Z,96896.72
2022-12-19T04:33:30.349Z,96894.91
2022-12-19T04:36:12.356Z,96895.22
2022-12-19T04:39:06.317Z,96904.25
2022-12-19T04:41:54.344Z,96896.97
2022-12-19T04:44:34.321Z,96902.56
2022-12-19T04:47:22.313Z,96907.66
2022-12-19T04:50:03.358Z,96907.09
2022-12-19T04:52:57.406Z,96911.38
2022-12-19T04:55:44.336Z,96910.81
2022-12-19T04:58:21.781Z,96907.66
2022-12-19T05:01:11.379Z,96912.09
2022-12-19T05:03:44.473Z,96908.78
2022-12-19T05:06:25.304Z,96907.31
2022-12-19T05:09:05.520Z,96900.25
2022-12-19T05:11:45.332Z,96906.16
2022-12-19T05:14:25.343Z,96906.16
2022-12-19T05:17:05.321Z,96906.16
2022-12-19T05:19:52.313Z,96898.75
2022-12-19T05:22:25.444Z,96899.47
2022-12-19T05:25:12.318Z,96899.63
2022-12-19T05:27:45.379Z,96898.50
2022-12-19T05:30:32.377Z,96899.06
2022-12-19T05:33:12.310Z,96899.06
2022-12-19T05:35:59.307Z,96900.09
2022-12-19T05:38:33.393Z,96902.16
2022-12-19T05:41:22.319Z,96898.41
2022-12-19T05:44:00.420Z,96893.91
2022-12-19T05:46:48.374Z,96902.00
2022-12-19T05:49:21.416Z,96904.91
2022-12-19T05:52:08.321Z,96902.78
2022-12-19T05:54:48.332Z,96901.38
2022-12-19T05:57:36.326Z,96901.19
2022-12-19T06:00:11.389Z,96898.41
2022-12-19T06:02:58.493Z,96891.75
2022-12-19T06:05:31.380Z,96898.72
2022-12-19T06:08:18.308Z,96908.25
2022-12-19T06:10:58.318Z,96908.69
2022-12-19T06:13:45.313Z,96907.38
2022-12-19T06:16:24.717Z,96903.66
2022-12-19T06:19:11.318Z,96911.22
2022-12-19T06:21:48.108Z,96918.03
2022-12-19T06:24:35.311Z,96915.13
2022-12-19T06:27:08.442Z,96914.84
2022-12-19T06:29:55.320Z,96913.09
2022-12-19T06:32:28.580Z,96917.56
2022-12-19T06:35:18.379Z,96921.28
2022-12-19T06:38:01.026Z,96911.44
2022-12-19T06:41:10.396Z,96919.00
2022-12-19T06:43:53.817Z,96920.03
2022-12-19T06:46:47.376Z,96918.59
2022-12-19T06:49:34.326Z,96916.28
2022-12-19T06:52:09.269Z,96916.13
2022-12-19T06:54:58.683Z,96909.84
2022-12-19T06:57:31.391Z,96906.28
2022-12-19T07:00:20.373Z,96916.59
2022-12-19T07:02:56.422Z,96914.91
2022-12-19T07:05:43.306Z,96911.78
2022-12-19T07:08:17.448Z,96907.47
2022-12-19T07:11:05.377Z,96912.69
2022-12-19T07:13:38.396Z,96912.56
2022-12-19T07:16:25.354Z,96918.94
2022-12-19T07:18:58.424Z,96917.91
2022-12-19T07:21:38.389Z,96908.34
2022-12-19T07:24:21.308Z,96917.97
2022-12-19T07:26:54.396Z,96912.13
2022-12-19T07:29:41.317Z,96906.34
2022-12-19T07:32:14.411Z,96911.25
2022-12-19T07:35:01.318Z,96903.88
2022-12-19T07:37:34.389Z,96903.72
2022-12-19T07:40:21.351Z,96907.06
2022-12-19T07:43:01.309Z,96908.97
2022-12-19T07:45:48.380Z,96908.25
2022-12-19T07:48:30.410Z,96905.22
2022-12-19T07:51:17.297Z,96901.72
2022-12-19T07:53:57.313Z,96901.59
2022-12-19T07:56:51.365Z,96905.63
2022-12-19T07:59:45.336Z,96898.00
2022-12-19T08:02:39.417Z,96895.41
2022-12-19T08:05:33.353Z,96887.31
2022-12-19T08:08:20.365Z,96885.63
2022-12-19T08:10:53.448Z,96887.53
2022-12-19T08:13:46.160Z,96885.34
2022-12-19T08:16:27.324Z,96887.41
2022-12-19T08:19:25.920Z,96886.94
2022-12-19T08:22:14.403Z,96890.72
2022-12-19T08:24:47.409Z,96892.09
2022-12-19T08:27:34.373Z,96891.63
2022-12-19T08:30:07.404Z,96892.25
2022-12-19T08:32:55.330Z,96888.34
2022-12-19T08:35:28.466Z,96889.38
2022-12-19T08:38:15.347Z,96893.72
2022-12-19T08:40:48.416Z,96886.94
2022-12-19T08:43:35.373Z,96885.19
2022-12-19T08:46:09.357Z,96882.00
2022-12-19T08:48:56.382Z,96878.13
2022-12-19T08:51:29.520Z,96882.63
2022-12-19T08:54:16.439Z,96877.38
2022-12-19T08:56:49.401Z,96878.72
2022-12-19T08:59:36.371Z,96869.56
2022-12-19T09:02:11.193Z,96875.38
2022-12-19T09:06:01.888Z,96873.50
2022-12-19T09:07:58.364Z,96864.59
2022-12-19T09:10:45.356Z,96858.94
2022-12-19T09:13:25.448Z,96858.75
2022-12-19T09:16:26.454Z,96858.88
2022-12-19T09:19:22.395Z,96854.94
2022-12-19T09:22:16.394Z,96847.78
2022-12-19T09:25:10.406Z,96852.84
2022-12-19T09:28:26.436Z,96853.25
2022-12-19T09:30:57.442Z,96839.25
2022-12-19T09:33:45.358Z,96835.38
2022-12-19T09:36:27.361Z,96830.81
2022-12-19T09:39:21.355Z,96823.00
2022-12-19T09:42:29.339Z,96817.69
2022-12-19T09:45:34.375Z,96821.53
2022-12-19T09:48:31.354Z,96813.53
2022-12-19T09:51:27.346Z,96798.84
2022-12-19T09:54:17.452Z,96798.91
2022-12-19T09:57:09.396Z,96793.53
2022-12-19T09:59:50.158Z,96787.88
2022-12-19T10:02:55.450Z,96795.16
2022-12-19T10:06:43.280Z,96793.69
2022-12-19T10:10:49.115Z,96802.56
2022-12-19T10:12:39.326Z,96802.09
2022-12-19T10:16:01.441Z,96786.47
2022-12-19T10:19:04.373Z,96782.91
2022-12-19T10:22:17.552Z,96771.75
2022-12-19T10:25:15.365Z,96753.94
2022-12-19T10:28:01.367Z,96736.16
2022-12-19T10:30:39.506Z,96738.59
2022-12-19T10:33:51.343Z,96741.31
2022-12-19T10:36:48.708Z,96750.34
2022-12-19T10:39:37.484Z,96747.97
2022-12-19T10:42:46.369Z,96740.22
2022-12-19T10:45:29.381Z,96752.38
2022-12-19T10:48:30.553Z,96750.97
2022-12-19T10:51:20.375Z,96734.22
2022-12-19T10:54:07.443Z,96739.50
2022-12-19T10:57:02.405Z,96732.09
2022-12-19T11:00:10.398Z,96724.19
2022-12-19T11:03:10.478Z,96719.81
2022-12-19T11:05:58.273Z,96721.22
2022-12-19T11:08:39.389Z,96702.50
2022-12-19T11:14:40.691Z,96699.38
2022-12-19T11:19:50.971Z,96700.59
2022-12-19T11:29:15.400Z,96683.59
2022-12-19T11:29:35.300Z,96681.03
2022-12-19T11:29:54.791Z,96684.88
2022-12-19T11:30:59.413Z,96683.97
2022-12-19T11:33:30.743Z,96676.03
2022-12-19T11:36:50.393Z,96674.59
2022-12-19T11:39:55.565Z,96669.47
2022-12-19T11:43:25.562Z,96668.81
2022-12-19T11:46:22.213Z,96657.50
2022-12-19T11:49:25.389Z,96648.81
2022-12-19T11:53:11.497Z,96648.88
2022-12-19T11:56:25.406Z,96656.34
2022-12-19T11:59:34.412Z,96646.91
2022-12-19T12:02:35.390Z,96642.28
2022-12-19T12:06:04.398Z,96642.59
2022-12-19T12:14:15.474Z,96629.88
2022-12-19T12:19:15.444Z,96638.16
2022-12-19T12:28:01.715Z,96632.09
2022-12-19T12:31:14.427Z,96630.16
2022-12-19T12:31:26.378Z,96633.31
2022-12-19T12:31:44.252Z,96632.38
2022-12-19T12:31:49.682Z,96629.94
2022-12-19T12:35:42.376Z,96633.97
2022-12-19T12:38:13.785Z,96623.91
2022-12-19T12:40:09.563Z,96617.09
2022-12-19T12:43:39.412Z,96592.00
2022-12-19T12:46:32.420Z,96591.34
2022-12-19T12:49:19.388Z,96599.81
2022-12-19T12:52:15.411Z,96597.19
2022-12-19T12:55:11.398Z,96598.06
2022-12-19T12:57:58.430Z,96616.41
2022-12-19T13:00:35.834Z,96613.03
2022-12-19T13:03:25.407Z,96606.31
2022-12-19T13:06:20.445Z,96609.59
2022-12-19T13:09:23.400Z,96604.59
2022-12-19T13:12:56.426Z,96607.00
2022-12-19T13:15:51.406Z,96597.75
2022-12-19T13:18:50.435Z,96603.41
2022-12-19T13:22:19.427Z,96592.56
2022-12-19T13:25:14.419Z,96593.22
2022-12-19T13:28:08.421Z,96597.25
2022-12-19T13:31:18.276Z,96590.53
2022-12-19T13:34:01.407Z,96587.09
2022-12-19T13:39:56.268Z,96590.31
2022-12-19T13:40:16.088Z,96590.25
2022-12-19T13:43:36.420Z,96595.97
2022-12-19T13:46:44.426Z,96587.53
2022-12-19T13:49:36.412Z,96578.31
2022-12-19T13:52:11.519Z,96580.16
2022-12-19T13:55:03.451Z,96572.66
2022-12-19T13:57:45.490Z,96581.78
2022-12-19T14:00:53.729Z,96586.56
2022-12-19T14:03:52.263Z,96581.25
2022-12-19T14:06:39.424Z,96581.06
2022-12-19T14:11:28.109Z,96572.28
2022-12-19T14:13:58.818Z,96572.00
2022-12-19T14:16:14.523Z,96572.66
2022-12-19T14:18:47.495Z,96572.22
2022-12-19T14:22:04.242Z,96577.88
2022-12-19T14:24:37.459Z,96575.00
2022-12-19T14:28:20.206Z,96574.47
2022-12-19T14:30:43.459Z,96585.00
2022-12-19T14:33:44.993Z,96578.06
2022-12-19T14:36:42.434Z,96577.75
2022-12-19T14:39:29.247Z,96575.72
2022-12-19T14:43:57.734Z,96575.59
2022-12-19T14:53:52.476Z,96570.97
2022-12-19T14:54:05.095Z,96574.09
2022-12-19T14:54:29.543Z,96577.25
2022-12-19T14:56:04.471Z,96574.44
2022-12-19T14:58:53.971Z,96573.47
2022-12-19T15:01:39.439Z,96572.38
2022-12-19T15:04:47.620Z,96573.03
2022-12-19T15:07:33.443Z,96576.91
2022-12-19T15:11:08.480Z,96578.34
2022-12-19T15:14:55.304Z,96579.66
2022-12-19T15:16:34.966Z,96576.19
2022-12-19T15:19:19.437Z,96566.88
2022-12-19T15:21:59.578Z,96570.22
2022-12-19T15:24:39.453Z,96571.63
2022-12-19T15:27:21.505Z,96565.78
2022-12-19T15:30:01.458Z,96559.94
2022-12-19T15:32:41.534Z,96563.19
2022-12-19T15:35:23.463Z,96575.44
2022-12-19T15:38:03.546Z,96557.00
2022-12-19T15:40:46.480Z,96564.28
2022-12-19T15:44:02.459Z,96567.50
2022-12-19T15:46:41.345Z,96570.13
2022-12-19T15:49:34.454Z,96553.44
2022-12-19T15:52:32.456Z,96558.41
2022-12-19T15:55:27.441Z,96554.19
2022-12-19T15:58:16.439Z,96553.34
2022-12-19T16:00:57.543Z,96552.47
2022-12-19T16:03:45.632Z,96554.97
2022-12-19T16:06:20.607Z,96550.84
2022-12-19T16:09:07.435Z,96542.41
2022-12-19T16:11:40.534Z,96538.28
2022-12-19T16:14:28.465Z,96535.69
2022-12-19T16:17:02.591Z,96541.53
2022-12-19T16:19:49.486Z,96534.06
2022-12-19T16:22:28.593Z,96533.31
2022-12-19T16:25:18.405Z,96531.59
2022-12-19T16:28:07.481Z,96530.69
2022-12-19T16:31:02.481Z,96531.34
2022-12-19T16:33:49.468Z,96521.31
2022-12-19T16:36:22.577Z,96534.50
2022-12-19T16:39:09.453Z,96527.88
2022-12-19T16:41:50.494Z,96520.34
2022-12-19T16:44:46.476Z,96525.19
2022-12-19T16:47:40.476Z,96520.66
2022-12-19T16:50:36.468Z,96514.69
2022-12-19T16:53:09.787Z,96515.22
2022-12-19T16:55:57.529Z,96515.13
2022-12-19T16:58:43.314Z,96508.31
2022-12-19T17:01:37.592Z,96512.41
2022-12-19T17:04:40.484Z,96511.56
2022-12-19T17:07:36.495Z,96512.31
2022-12-19T17:10:32.485Z,96506.59
2022-12-19T17:13:29.479Z,96501.59
2022-12-19T17:16:23.556Z,96505.06
2022-12-19T17:19:17.976Z,96501.69
2022-12-19T17:22:04.495Z,96500.31
2022-12-19T17:24:44.460Z,96494.56
2022-12-19T17:27:38.493Z,96482.09
2022-12-19T17:30:26.571Z,96484.84
2022-12-19T17:33:03.292Z,96472.59
2022-12-19T17:35:51.473Z,96477.56
2022-12-19T17:38:24.662Z,96472.47
2022-12-19T17:41:11.496Z,96475.84
2022-12-19T17:43:51.470Z,96478.44
2022-12-19T17:46:51.499Z,96470.09
2022-12-19T17:49:39.474Z,96472.59
2022-12-19T17:52:19.664Z,96473.44
2022-12-19T17:55:12.083Z,96470.97
2022-12-19T17:57:46.587Z,96470.31
2022-12-19T18:00:35.503Z,96467.06
2022-12-19T18:03:31.531Z,96472.16
2022-12-19T18:06:25.474Z,96474.09
2022-12-19T18:09:19.478Z,96471.84
2022-12-19T18:12:06.492Z,96471.84
2022-12-19T18:14:46.490Z,96464.44
2022-12-19T18:17:40.517Z,96465.41
2022-12-19T18:20:32.794Z,96466.50
2022-12-19T18:23:07.561Z,96461.53
2022-12-19T18:26:00.917Z,96457.41
2022-12-19T18:28:34.579Z,96454.25
2022-12-19T18:31:22.559Z,96446.78
2022-12-19T18:34:02.043Z,96438.78
2022-12-19T18:36:48.526Z,96443.97
2022-12-19T18:39:31.505Z,96441.78
2022-12-19T18:42:04.583Z,96449.47
2022-12-19T18:44:58.512Z,96446.34
2022-12-19T18:47:52.504Z,96429.00
2022-12-19T18:50:39.507Z,96433.41
2022-12-19T18:53:21.807Z,96428.66
2022-12-19T18:56:09.511Z,96431.47
2022-12-19T18:58:43.605Z,96428.31
2022-12-19T19:01:30.595Z,96423.44
2022-12-19T19:04:11.527Z,96422.84
2022-12-19T19:07:00.488Z,96424.69
2022-12-19T19:09:33.602Z,96417.19
2022-12-19T19:12:20.511Z,96422.41
2022-12-19T19:15:00.504Z,96416.97
2022-12-19T19:17:55.504Z,96414.78
2022-12-19T19:20:45.511Z,96417.38
2022-12-19T19:23:27.556Z,96419.31
2022-12-19T19:26:14.539Z,96416.25
2022-12-19T19:28:54.538Z,96409.75
2022-12-19T19:31:52.534Z,96409.16
2022-12-19T19:34:43.514Z,96408.59
2022-12-19T19:37:26.530Z,96400.38
2022-12-19T19:40:14.510Z,96406.53
2022-12-19T19:42:47.734Z,96408.50
2022-12-19T19:45:43.644Z,96405.56
2022-12-19T19:48:37.533Z,96400.94
2022-12-19T19:51:24.529Z,96390.50
2022-12-19T19:53:57.659Z,96385.72
2022-12-19T19:56:44.533Z,96386.97
2022-12-19T19:59:17.607Z,96384.69
2022-12-19T20:02:04.615Z,96377.50
2022-12-19T20:04:38.608Z,96380.34
2022-12-19T20:07:25.515Z,96373.25
2022-12-19T20:10:05.545Z,96367.59
2022-12-19T20:12:53.529Z,96364.53
2022-12-19T20:15:26.689Z,96372.28
2022-12-19T20:18:13.536Z,96368.38
2022-12-19T20:20:46.637Z,96362.69
2022-12-19T20:23:33.522Z,96368.66
2022-12-19T20:26:08.023Z,96380.63
2022-12-19T20:28:56.534Z,96376.78
2022-12-19T20:31:37.580Z,96376.31
2022-12-19T20:34:26.543Z,96380.72
2022-12-19T20:37:06.523Z,96376.00
2022-12-19T20:39:53.514Z,96378.69
2022-12-19T20:42:33.534Z,96375.41
2022-12-19T20:45:28.539Z,96379.94
2022-12-19T20:48:15.549Z,96384.41
2022-12-19T20:50:48.608Z,96382.28
2022-12-19T20:53:35.550Z,96380.28
2022-12-19T20:56:10.647Z,96378.41
2022-12-19T20:58:57.538Z,96376.44
2022-12-19T21:01:31.669Z,96387.59
2022-12-19T21:04:18.668Z,96380.44
2022-12-19T21:06:51.633Z,96379.16
2022-12-19T21:09:38.524Z,96379.44
2022-12-19T21:12:11.655Z,96374.69
2022-12-19T21:14:58.534Z,96370.75
2022-12-19T21:17:31.676Z,96366.03
2022-12-19T21:20:18.544Z,96365.50
2022-12-19T21:22:51.635Z,96357.41
2022-12-19T21:25:38.534Z,96356.91
2022-12-19T21:28:11.620Z,96356.22
2022-12-19T21:31:11.595Z,96352.22
2022-12-19T21:33:51.571Z,96349.97
2022-12-19T21:36:46.551Z,96342.66
2022-12-19T21:39:33.568Z,96341.19
2022-12-19T21:42:06.717Z,96343.00
2022-12-19T21:45:00.568Z,96335.75
2022-12-19T21:47:54.567Z,96328.59
2022-12-19T21:50:41.562Z,96337.28
2022-12-19T21:53:14.641Z,96325.81
2022-12-19T21:56:09.545Z,96330.13
2022-12-19T21:58:42.632Z,96327.09
2022-12-19T22:01:30.642Z,96324.84
2022-12-19T22:04:07.727Z,96326.72
2022-12-19T22:06:55.582Z,96324.47
2022-12-19T22:09:36.552Z,96328.09
2022-12-19T22:12:23.567Z,96320.81
2022-12-19T22:15:05.561Z,96315.19
2022-12-19T22:17:59.585Z,96311.31
2022-12-19T22:20:50.602Z,96308.97
2022-12-19T22:23:23.627Z,96309.91
2022-12-19T22:26:20.576Z,96305.91
2022-12-19T22:28:56.664Z,96299.44
2022-12-19T22:31:45.646Z,96293.72
2022-12-19T22:34:21.625Z,96307.34
2022-12-19T22:37:08.564Z,96300.00
2022-12-19T22:39:48.633Z,96294.34
2022-12-19T22:42:42.582Z,96286.91
2022-12-19T22:45:36.603Z,96288.81
2022-12-19T22:48:30.580Z,96288.94
2022-12-19T22:51:17.685Z,96290.84
2022-12-19T22:53:50.652Z,96290.13
2022-12-19T22:56:39.586Z,96288.75
2022-12-19T22:59:21.589Z,96284.63
2022-12-19T23:02:15.782Z,96273.13
2022-12-19T23:05:02.623Z,96277.34
2022-12-19T23:07:35.705Z,96271.56
2022-12-19T23:10:22.665Z,96264.06
2022-12-19T23:12:55.709Z,96266.69
2022-12-19T23:15:42.599Z,96267.63
2022-12-19T23:18:16.056Z,96263.47
2022-12-19T23:21:16.594Z,96269.44
2022-12-19T23:23:58.587Z,96264.41
2022-12-19T23:26:45.583Z,96264.41
2022-12-19T23:29:28.584Z,96250.25
2022-12-19T23:32:22.637Z,96252.13
2022-12-19T23:35:16.580Z,96252.28
2022-12-19T23:38:03.587Z,96257.44
2022-12-19T23:40:43.569Z,96254.13
2022-12-19T23:43:30.613Z,96249.13
2022-12-19T23:46:10.671Z,96245.00
2022-12-19T23:48:59.632Z,96246.69
2022-12-19T23:51:40.603Z,96245.03
2022-12-19T23:54:27.585Z,96242.47
2022-12-19T23:57:07.600Z,96231.66
